sensor_id;sensor_type;location;lat;lon;timestamp;P1;durP1;ratioP1;P2;durP2;ratioP2
27225;SDS011;14732;51.074;3.788;2023-04-23T00:02:02;23.38;;;15.52;;
27225;SDS011;14732;51.074;3.788;2023-04-23T00:04:30;27.73;;;16.55;;
27225;SDS011;14732;51.074;3.788;2023-04-23T00:07:01;24.65;;;15.73;;
27225;SDS011;14732;51.074;3.788;2023-04-23T00:09:29;23.35;;;15.88;;
27225;SDS011;14732;51.074;3.788;2023-04-23T00:11:58;23.90;;;15.25;;
27225;SDS011;14732;51.074;3.788;2023-04-23T00:14:26;26.10;;;15.55;;
27225;SDS011;14732;51.074;3.788;2023-04-23T00:16:52;26.38;;;16.48;;
27225;SDS011;14732;51.074;3.788;2023-04-23T00:19:18;25.35;;;16.13;;
27225;SDS011;14732;51.074;3.788;2023-04-23T00:21:44;26.98;;;16.20;;
27225;SDS011;14732;51.074;3.788;2023-04-23T00:24:10;24.67;;;16.25;;
27225;SDS011;14732;51.074;3.788;2023-04-23T00:26:36;26.60;;;16.15;;
27225;SDS011;14732;51.074;3.788;2023-04-23T00:29:01;27.33;;;17.08;;
27225;SDS011;14732;51.074;3.788;2023-04-23T00:31:27;26.30;;;16.40;;
27225;SDS011;14732;51.074;3.788;2023-04-23T00:33:53;25.90;;;15.95;;
27225;SDS011;14732;51.074;3.788;2023-04-23T00:36:19;23.52;;;15.45;;
27225;SDS011;14732;51.074;3.788;2023-04-23T00:38:45;26.13;;;16.13;;
27225;SDS011;14732;51.074;3.788;2023-04-23T00:41:11;24.73;;;15.18;;
27225;SDS011;14732;51.074;3.788;2023-04-23T00:43:37;26.88;;;16.73;;
27225;SDS011;14732;51.074;3.788;2023-04-23T00:46:03;27.58;;;17.17;;
27225;SDS011;14732;51.074;3.788;2023-04-23T00:48:29;27.50;;;16.83;;
27225;SDS011;14732;51.074;3.788;2023-04-23T00:50:57;29.88;;;17.15;;
27225;SDS011;14732;51.074;3.788;2023-04-23T00:53:31;26.88;;;17.40;;
27225;SDS011;14732;51.074;3.788;2023-04-23T00:55:58;26.88;;;16.95;;
27225;SDS011;14732;51.074;3.788;2023-04-23T00:58:26;31.08;;;18.02;;
27225;SDS011;14732;51.074;3.788;2023-04-23T01:00:53;29.60;;;17.35;;
27225;SDS011;14732;51.074;3.788;2023-04-23T01:03:19;31.10;;;18.05;;
27225;SDS011;14732;51.074;3.788;2023-04-23T01:05:46;29.77;;;17.27;;
27225;SDS011;14732;51.074;3.788;2023-04-23T01:08:16;27.13;;;16.88;;
27225;SDS011;14732;51.074;3.788;2023-04-23T01:10:43;29.55;;;17.48;;
27225;SDS011;14732;51.074;3.788;2023-04-23T01:13:10;28.15;;;17.20;;
27225;SDS011;14732;51.074;3.788;2023-04-23T01:15:36;32.95;;;17.85;;
27225;SDS011;14732;51.074;3.788;2023-04-23T01:18:02;27.50;;;16.98;;
27225;SDS011;14732;51.074;3.788;2023-04-23T01:20:28;26.40;;;16.63;;
27225;SDS011;14732;51.074;3.788;2023-04-23T01:22:54;25.95;;;16.33;;
27225;SDS011;14732;51.074;3.788;2023-04-23T01:25:20;26.83;;;16.45;;
27225;SDS011;14732;51.074;3.788;2023-04-23T01:27:46;27.25;;;16.67;;
27225;SDS011;14732;51.074;3.788;2023-04-23T01:30:12;29.08;;;16.52;;
27225;SDS011;14732;51.074;3.788;2023-04-23T01:32:38;26.10;;;16.40;;
27225;SDS011;14732;51.074;3.788;2023-04-23T01:35:05;29.15;;;17.23;;
27225;SDS011;14732;51.074;3.788;2023-04-23T01:37:32;28.92;;;16.55;;
27225;SDS011;14732;51.074;3.788;2023-04-23T01:39:59;28.70;;;16.02;;
27225;SDS011;14732;51.074;3.788;2023-04-23T01:42:25;24.90;;;15.50;;
27225;SDS011;14732;51.074;3.788;2023-04-23T01:44:51;25.92;;;16.60;;
27225;SDS011;14732;51.074;3.788;2023-04-23T01:47:17;26.23;;;15.30;;
27225;SDS011;14732;51.074;3.788;2023-04-23T01:49:43;28.02;;;15.93;;
27225;SDS011;14732;51.074;3.788;2023-04-23T01:52:09;25.23;;;15.32;;
27225;SDS011;14732;51.074;3.788;2023-04-23T01:54:35;23.88;;;15.10;;
27225;SDS011;14732;51.074;3.788;2023-04-23T01:57:01;25.38;;;15.50;;
27225;SDS011;14732;51.074;3.788;2023-04-23T01:59:27;25.63;;;15.02;;
27225;SDS011;14732;51.074;3.788;2023-04-23T02:01:52;24.75;;;16.15;;
27225;SDS011;14732;51.074;3.788;2023-04-23T02:04:18;24.90;;;15.48;;
27225;SDS011;14732;51.074;3.788;2023-04-23T02:06:45;23.95;;;15.38;;
27225;SDS011;14732;51.074;3.788;2023-04-23T02:09:12;22.85;;;14.25;;
27225;SDS011;14732;51.074;3.788;2023-04-23T02:11:38;25.80;;;15.57;;
27225;SDS011;14732;51.074;3.788;2023-04-23T02:14:04;22.40;;;14.82;;
27225;SDS011;14732;51.074;3.788;2023-04-23T02:16:30;26.00;;;16.02;;
27225;SDS011;14732;51.074;3.788;2023-04-23T02:18:57;23.20;;;14.20;;
27225;SDS011;14732;51.074;3.788;2023-04-23T02:21:23;25.65;;;15.32;;
27225;SDS011;14732;51.074;3.788;2023-04-23T02:23:50;25.70;;;15.18;;
27225;SDS011;14732;51.074;3.788;2023-04-23T02:26:15;22.90;;;14.32;;
27225;SDS011;14732;51.074;3.788;2023-04-23T02:28:42;25.27;;;15.27;;
27225;SDS011;14732;51.074;3.788;2023-04-23T02:31:08;21.98;;;14.93;;
27225;SDS011;14732;51.074;3.788;2023-04-23T02:33:34;25.75;;;15.52;;
27225;SDS011;14732;51.074;3.788;2023-04-23T02:36:00;22.70;;;14.55;;
27225;SDS011;14732;51.074;3.788;2023-04-23T02:38:25;29.80;;;16.05;;
27225;SDS011;14732;51.074;3.788;2023-04-23T02:40:51;24.83;;;15.15;;
27225;SDS011;14732;51.074;3.788;2023-04-23T02:43:17;26.60;;;14.75;;
27225;SDS011;14732;51.074;3.788;2023-04-23T02:45:42;27.83;;;15.20;;
27225;SDS011;14732;51.074;3.788;2023-04-23T02:48:09;26.90;;;15.68;;
27225;SDS011;14732;51.074;3.788;2023-04-23T02:50:35;24.45;;;15.57;;
27225;SDS011;14732;51.074;3.788;2023-04-23T02:53:03;27.15;;;15.73;;
27225;SDS011;14732;51.074;3.788;2023-04-23T02:55:29;25.30;;;15.05;;
27225;SDS011;14732;51.074;3.788;2023-04-23T02:57:56;26.67;;;15.88;;
27225;SDS011;14732;51.074;3.788;2023-04-23T03:00:22;27.33;;;15.55;;
27225;SDS011;14732;51.074;3.788;2023-04-23T03:02:49;27.35;;;15.65;;
27225;SDS011;14732;51.074;3.788;2023-04-23T03:05:15;26.95;;;15.25;;
27225;SDS011;14732;51.074;3.788;2023-04-23T03:07:41;25.10;;;16.05;;
27225;SDS011;14732;51.074;3.788;2023-04-23T03:10:06;25.38;;;16.15;;
27225;SDS011;14732;51.074;3.788;2023-04-23T03:12:32;27.98;;;15.98;;
27225;SDS011;14732;51.074;3.788;2023-04-23T03:14:58;29.77;;;16.40;;
27225;SDS011;14732;51.074;3.788;2023-04-23T03:17:24;26.70;;;16.30;;
27225;SDS011;14732;51.074;3.788;2023-04-23T03:19:50;28.85;;;16.17;;
27225;SDS011;14732;51.074;3.788;2023-04-23T03:22:16;26.30;;;15.27;;
27225;SDS011;14732;51.074;3.788;2023-04-23T03:24:41;23.65;;;14.82;;
27225;SDS011;14732;51.074;3.788;2023-04-23T03:27:07;24.65;;;14.88;;
27225;SDS011;14732;51.074;3.788;2023-04-23T03:29:32;25.63;;;14.20;;
27225;SDS011;14732;51.074;3.788;2023-04-23T03:31:58;24.65;;;14.73;;
27225;SDS011;14732;51.074;3.788;2023-04-23T03:34:24;22.63;;;14.25;;
27225;SDS011;14732;51.074;3.788;2023-04-23T03:36:49;26.38;;;14.52;;
27225;SDS011;14732;51.074;3.788;2023-04-23T03:39:15;22.15;;;13.52;;
27225;SDS011;14732;51.074;3.788;2023-04-23T03:41:41;25.77;;;13.90;;
27225;SDS011;14732;51.074;3.788;2023-04-23T03:44:07;19.70;;;12.52;;
27225;SDS011;14732;51.074;3.788;2023-04-23T03:46:33;25.30;;;12.82;;
27225;SDS011;14732;51.074;3.788;2023-04-23T03:48:58;23.23;;;12.63;;
27225;SDS011;14732;51.074;3.788;2023-04-23T03:51:25;22.80;;;13.25;;
27225;SDS011;14732;51.074;3.788;2023-04-23T03:53:51;19.33;;;12.30;;
27225;SDS011;14732;51.074;3.788;2023-04-23T03:56:17;26.23;;;12.15;;
27225;SDS011;14732;51.074;3.788;2023-04-23T03:58:42;20.75;;;12.18;;
27225;SDS011;14732;51.074;3.788;2023-04-23T04:01:08;19.52;;;11.32;;
27225;SDS011;14732;51.074;3.788;2023-04-23T04:03:34;21.55;;;12.05;;
27225;SDS011;14732;51.074;3.788;2023-04-23T04:06:00;22.20;;;12.68;;
27225;SDS011;14732;51.074;3.788;2023-04-23T04:08:26;21.25;;;11.85;;
27225;SDS011;14732;51.074;3.788;2023-04-23T04:10:53;24.90;;;12.45;;
27225;SDS011;14732;51.074;3.788;2023-04-23T04:13:20;18.83;;;11.23;;
27225;SDS011;14732;51.074;3.788;2023-04-23T04:15:45;19.05;;;10.82;;
27225;SDS011;14732;51.074;3.788;2023-04-23T04:18:11;16.98;;;10.50;;
27225;SDS011;14732;51.074;3.788;2023-04-23T04:20:37;21.20;;;10.60;;
27225;SDS011;14732;51.074;3.788;2023-04-23T04:23:02;15.30;;;9.57;;
27225;SDS011;14732;51.074;3.788;2023-04-23T04:25:28;15.27;;;9.00;;
27225;SDS011;14732;51.074;3.788;2023-04-23T04:27:54;17.83;;;9.63;;
27225;SDS011;14732;51.074;3.788;2023-04-23T04:30:21;18.95;;;9.52;;
27225;SDS011;14732;51.074;3.788;2023-04-23T04:32:48;19.95;;;9.68;;
27225;SDS011;14732;51.074;3.788;2023-04-23T04:35:14;23.25;;;9.50;;
27225;SDS011;14732;51.074;3.788;2023-04-23T04:37:40;20.73;;;9.80;;
27225;SDS011;14732;51.074;3.788;2023-04-23T04:40:08;16.98;;;9.32;;
27225;SDS011;14732;51.074;3.788;2023-04-23T04:42:35;16.02;;;8.73;;
27225;SDS011;14732;51.074;3.788;2023-04-23T04:45:01;19.63;;;8.65;;
27225;SDS011;14732;51.074;3.788;2023-04-23T04:47:28;16.52;;;8.80;;
27225;SDS011;14732;51.074;3.788;2023-04-23T04:49:54;17.33;;;9.40;;
27225;SDS011;14732;51.074;3.788;2023-04-23T04:52:21;17.60;;;8.40;;
27225;SDS011;14732;51.074;3.788;2023-04-23T04:54:48;13.77;;;8.15;;
27225;SDS011;14732;51.074;3.788;2023-04-23T04:57:14;13.75;;;8.02;;
27225;SDS011;14732;51.074;3.788;2023-04-23T04:59:39;17.10;;;7.80;;
27225;SDS011;14732;51.074;3.788;2023-04-23T05:02:05;17.58;;;7.55;;
27225;SDS011;14732;51.074;3.788;2023-04-23T05:04:31;13.77;;;7.22;;
27225;SDS011;14732;51.074;3.788;2023-04-23T05:06:58;13.20;;;6.85;;
27225;SDS011;14732;51.074;3.788;2023-04-23T05:09:24;11.82;;;6.82;;
27225;SDS011;14732;51.074;3.788;2023-04-23T05:11:50;14.38;;;6.40;;
27225;SDS011;14732;51.074;3.788;2023-04-23T05:14:15;13.10;;;6.20;;
27225;SDS011;14732;51.074;3.788;2023-04-23T05:16:41;13.55;;;5.75;;
27225;SDS011;14732;51.074;3.788;2023-04-23T05:19:07;12.98;;;5.38;;
27225;SDS011;14732;51.074;3.788;2023-04-23T05:21:33;14.52;;;5.63;;
27225;SDS011;14732;51.074;3.788;2023-04-23T05:23:59;9.48;;;4.68;;
27225;SDS011;14732;51.074;3.788;2023-04-23T05:26:25;9.38;;;4.68;;
27225;SDS011;14732;51.074;3.788;2023-04-23T05:28:50;10.27;;;4.53;;
27225;SDS011;14732;51.074;3.788;2023-04-23T05:31:16;8.32;;;4.88;;
27225;SDS011;14732;51.074;3.788;2023-04-23T05:33:42;11.65;;;5.03;;
27225;SDS011;14732;51.074;3.788;2023-04-23T05:36:09;14.00;;;5.15;;
27225;SDS011;14732;51.074;3.788;2023-04-23T05:38:35;9.27;;;4.38;;
27225;SDS011;14732;51.074;3.788;2023-04-23T05:41:00;8.73;;;4.57;;
27225;SDS011;14732;51.074;3.788;2023-04-23T05:43:26;8.82;;;4.25;;
27225;SDS011;14732;51.074;3.788;2023-04-23T05:45:52;12.18;;;4.28;;
27225;SDS011;14732;51.074;3.788;2023-04-23T05:48:17;6.35;;;3.28;;
27225;SDS011;14732;51.074;3.788;2023-04-23T05:50:43;8.02;;;3.22;;
27225;SDS011;14732;51.074;3.788;2023-04-23T05:53:09;7.03;;;2.88;;
27225;SDS011;14732;51.074;3.788;2023-04-23T05:55:35;6.80;;;3.08;;
27225;SDS011;14732;51.074;3.788;2023-04-23T05:58:00;8.32;;;3.13;;
27225;SDS011;14732;51.074;3.788;2023-04-23T06:00:26;7.40;;;3.28;;
27225;SDS011;14732;51.074;3.788;2023-04-23T06:02:52;4.90;;;2.90;;
27225;SDS011;14732;51.074;3.788;2023-04-23T06:05:18;8.65;;;3.05;;
27225;SDS011;14732;51.074;3.788;2023-04-23T06:07:44;7.15;;;2.92;;
27225;SDS011;14732;51.074;3.788;2023-04-23T06:10:10;5.35;;;2.80;;
27225;SDS011;14732;51.074;3.788;2023-04-23T06:12:36;10.00;;;3.17;;
27225;SDS011;14732;51.074;3.788;2023-04-23T06:15:06;7.03;;;2.95;;
27225;SDS011;14732;51.074;3.788;2023-04-23T06:17:33;7.57;;;3.03;;
27225;SDS011;14732;51.074;3.788;2023-04-23T06:20:02;7.13;;;2.78;;
27225;SDS011;14732;51.074;3.788;2023-04-23T06:22:29;9.98;;;3.08;;
27225;SDS011;14732;51.074;3.788;2023-04-23T06:24:55;7.13;;;3.15;;
27225;SDS011;14732;51.074;3.788;2023-04-23T06:27:21;6.18;;;2.40;;
27225;SDS011;14732;51.074;3.788;2023-04-23T06:29:47;8.30;;;2.92;;
27225;SDS011;14732;51.074;3.788;2023-04-23T06:32:12;10.43;;;3.13;;
27225;SDS011;14732;51.074;3.788;2023-04-23T06:34:38;8.60;;;2.65;;
27225;SDS011;14732;51.074;3.788;2023-04-23T06:37:03;7.75;;;2.80;;
27225;SDS011;14732;51.074;3.788;2023-04-23T06:39:29;6.55;;;3.20;;
27225;SDS011;14732;51.074;3.788;2023-04-23T06:41:55;5.78;;;2.45;;
27225;SDS011;14732;51.074;3.788;2023-04-23T06:44:22;7.88;;;2.90;;
27225;SDS011;14732;51.074;3.788;2023-04-23T06:46:47;7.97;;;2.60;;
27225;SDS011;14732;51.074;3.788;2023-04-23T06:49:13;9.13;;;2.83;;
27225;SDS011;14732;51.074;3.788;2023-04-23T06:51:39;7.85;;;2.50;;
27225;SDS011;14732;51.074;3.788;2023-04-23T06:54:05;7.05;;;2.60;;
27225;SDS011;14732;51.074;3.788;2023-04-23T06:56:30;6.03;;;2.40;;
27225;SDS011;14732;51.074;3.788;2023-04-23T06:58:56;10.38;;;2.80;;
27225;SDS011;14732;51.074;3.788;2023-04-23T07:01:22;7.93;;;2.42;;
27225;SDS011;14732;51.074;3.788;2023-04-23T07:03:47;11.75;;;2.70;;
27225;SDS011;14732;51.074;3.788;2023-04-23T07:06:15;7.78;;;2.30;;
27225;SDS011;14732;51.074;3.788;2023-04-23T07:08:41;6.00;;;2.60;;
27225;SDS011;14732;51.074;3.788;2023-04-23T07:11:08;7.70;;;2.17;;
27225;SDS011;14732;51.074;3.788;2023-04-23T07:13:34;8.27;;;2.10;;
27225;SDS011;14732;51.074;3.788;2023-04-23T07:16:00;8.35;;;2.35;;
27225;SDS011;14732;51.074;3.788;2023-04-23T07:18:26;5.28;;;2.45;;
27225;SDS011;14732;51.074;3.788;2023-04-23T07:20:51;7.20;;;2.20;;
27225;SDS011;14732;51.074;3.788;2023-04-23T07:23:17;6.30;;;2.22;;
27225;SDS011;14732;51.074;3.788;2023-04-23T07:25:43;5.70;;;2.38;;
27225;SDS011;14732;51.074;3.788;2023-04-23T07:28:08;7.55;;;1.92;;
27225;SDS011;14732;51.074;3.788;2023-04-23T07:30:34;6.47;;;2.03;;
27225;SDS011;14732;51.074;3.788;2023-04-23T07:33:00;5.13;;;1.80;;
27225;SDS011;14732;51.074;3.788;2023-04-23T07:35:26;7.75;;;2.38;;
27225;SDS011;14732;51.074;3.788;2023-04-23T07:37:52;4.57;;;1.80;;
27225;SDS011;14732;51.074;3.788;2023-04-23T07:40:20;8.75;;;2.65;;
27225;SDS011;14732;51.074;3.788;2023-04-23T07:42:46;8.23;;;1.95;;
27225;SDS011;14732;51.074;3.788;2023-04-23T07:45:12;6.90;;;2.40;;
27225;SDS011;14732;51.074;3.788;2023-04-23T07:47:38;8.18;;;2.40;;
27225;SDS011;14732;51.074;3.788;2023-04-23T07:50:04;8.10;;;2.08;;
27225;SDS011;14732;51.074;3.788;2023-04-23T07:52:30;8.35;;;2.20;;
27225;SDS011;14732;51.074;3.788;2023-04-23T07:54:56;6.55;;;2.00;;
27225;SDS011;14732;51.074;3.788;2023-04-23T07:57:21;8.32;;;2.25;;
27225;SDS011;14732;51.074;3.788;2023-04-23T07:59:47;8.20;;;2.08;;
27225;SDS011;14732;51.074;3.788;2023-04-23T08:02:13;6.55;;;2.05;;
27225;SDS011;14732;51.074;3.788;2023-04-23T08:04:39;6.15;;;2.10;;
27225;SDS011;14732;51.074;3.788;2023-04-23T08:07:04;7.25;;;2.10;;
27225;SDS011;14732;51.074;3.788;2023-04-23T08:09:30;6.88;;;1.70;;
27225;SDS011;14732;51.074;3.788;2023-04-23T08:11:56;8.13;;;2.30;;
27225;SDS011;14732;51.074;3.788;2023-04-23T08:14:21;5.13;;;1.75;;
27225;SDS011;14732;51.074;3.788;2023-04-23T08:16:47;7.63;;;2.10;;
27225;SDS011;14732;51.074;3.788;2023-04-23T08:19:13;8.35;;;2.00;;
27225;SDS011;14732;51.074;3.788;2023-04-23T08:21:38;9.18;;;1.92;;
27225;SDS011;14732;51.074;3.788;2023-04-23T08:24:04;7.93;;;2.35;;
27225;SDS011;14732;51.074;3.788;2023-04-23T08:26:33;4.75;;;2.13;;
27225;SDS011;14732;51.074;3.788;2023-04-23T08:28:58;7.13;;;2.10;;
27225;SDS011;14732;51.074;3.788;2023-04-23T08:31:27;5.40;;;2.20;;
27225;SDS011;14732;51.074;3.788;2023-04-23T08:33:53;7.75;;;2.55;;
27225;SDS011;14732;51.074;3.788;2023-04-23T08:36:19;5.97;;;1.80;;
27225;SDS011;14732;51.074;3.788;2023-04-23T08:38:45;8.18;;;1.90;;
27225;SDS011;14732;51.074;3.788;2023-04-23T08:41:13;3.95;;;1.95;;
27225;SDS011;14732;51.074;3.788;2023-04-23T08:43:52;6.13;;;2.13;;
27225;SDS011;14732;51.074;3.788;2023-04-23T08:46:22;5.88;;;2.00;;
27225;SDS011;14732;51.074;3.788;2023-04-23T08:48:50;4.85;;;1.92;;
27225;SDS011;14732;51.074;3.788;2023-04-23T08:51:17;9.10;;;2.17;;
27225;SDS011;14732;51.074;3.788;2023-04-23T08:53:45;6.85;;;2.10;;
27225;SDS011;14732;51.074;3.788;2023-04-23T08:56:16;7.57;;;1.77;;
27225;SDS011;14732;51.074;3.788;2023-04-23T08:58:43;5.93;;;2.33;;
27225;SDS011;14732;51.074;3.788;2023-04-23T09:01:11;7.50;;;2.10;;
27225;SDS011;14732;51.074;3.788;2023-04-23T09:03:37;5.10;;;1.58;;
27225;SDS011;14732;51.074;3.788;2023-04-23T09:06:03;5.28;;;1.55;;
27225;SDS011;14732;51.074;3.788;2023-04-23T09:08:29;5.45;;;1.70;;
27225;SDS011;14732;51.074;3.788;2023-04-23T09:10:57;10.25;;;1.98;;
27225;SDS011;14732;51.074;3.788;2023-04-23T09:13:25;8.75;;;1.50;;
27225;SDS011;14732;51.074;3.788;2023-04-23T09:15:51;5.50;;;1.75;;
27225;SDS011;14732;51.074;3.788;2023-04-23T09:18:17;8.65;;;1.80;;
27225;SDS011;14732;51.074;3.788;2023-04-23T09:20:44;7.55;;;1.67;;
27225;SDS011;14732;51.074;3.788;2023-04-23T09:23:12;6.10;;;1.65;;
27225;SDS011;14732;51.074;3.788;2023-04-23T09:25:39;6.10;;;1.45;;
27225;SDS011;14732;51.074;3.788;2023-04-23T09:28:08;7.05;;;1.58;;
27225;SDS011;14732;51.074;3.788;2023-04-23T09:30:38;7.78;;;1.48;;
27225;SDS011;14732;51.074;3.788;2023-04-23T09:33:09;10.18;;;1.60;;
27225;SDS011;14732;51.074;3.788;2023-04-23T09:35:36;7.75;;;1.40;;
27225;SDS011;14732;51.074;3.788;2023-04-23T09:38:02;6.38;;;1.40;;
27225;SDS011;14732;51.074;3.788;2023-04-23T09:40:31;5.13;;;1.65;;
27225;SDS011;14732;51.074;3.788;2023-04-23T09:42:57;5.72;;;1.15;;
27225;SDS011;14732;51.074;3.788;2023-04-23T09:45:23;5.15;;;1.10;;
27225;SDS011;14732;51.074;3.788;2023-04-23T09:47:51;8.35;;;1.40;;
27225;SDS011;14732;51.074;3.788;2023-04-23T09:50:37;7.22;;;1.48;;
27225;SDS011;14732;51.074;3.788;2023-04-23T09:53:04;6.40;;;1.30;;
27225;SDS011;14732;51.074;3.788;2023-04-23T09:55:31;9.88;;;1.58;;
27225;SDS011;14732;51.074;3.788;2023-04-23T09:58:12;7.00;;;1.27;;
27225;SDS011;14732;51.074;3.788;2023-04-23T10:00:39;7.82;;;1.40;;
27225;SDS011;14732;51.074;3.788;2023-04-23T10:03:06;7.78;;;1.52;;
27225;SDS011;14732;51.074;3.788;2023-04-23T10:05:40;7.95;;;1.33;;
27225;SDS011;14732;51.074;3.788;2023-04-23T10:08:07;11.60;;;1.23;;
27225;SDS011;14732;51.074;3.788;2023-04-23T10:10:33;9.93;;;1.40;;
27225;SDS011;14732;51.074;3.788;2023-04-23T10:13:00;8.60;;;1.35;;
27225;SDS011;14732;51.074;3.788;2023-04-23T10:15:26;6.35;;;1.83;;
27225;SDS011;14732;51.074;3.788;2023-04-23T10:17:53;5.35;;;1.35;;
27225;SDS011;14732;51.074;3.788;2023-04-23T10:20:20;6.03;;;1.60;;
27225;SDS011;14732;51.074;3.788;2023-04-23T10:22:46;7.60;;;1.75;;
27225;SDS011;14732;51.074;3.788;2023-04-23T10:25:13;9.75;;;1.48;;
27225;SDS011;14732;51.074;3.788;2023-04-23T10:27:40;7.57;;;1.83;;
27225;SDS011;14732;51.074;3.788;2023-04-23T10:30:09;7.93;;;1.73;;
27225;SDS011;14732;51.074;3.788;2023-04-23T10:32:35;7.53;;;1.70;;
27225;SDS011;14732;51.074;3.788;2023-04-23T10:35:05;5.65;;;1.35;;
27225;SDS011;14732;51.074;3.788;2023-04-23T10:37:33;8.38;;;1.58;;
27225;SDS011;14732;51.074;3.788;2023-04-23T10:40:02;6.00;;;1.50;;
27225;SDS011;14732;51.074;3.788;2023-04-23T10:42:33;7.32;;;1.70;;
27225;SDS011;14732;51.074;3.788;2023-04-23T10:44:59;8.52;;;1.75;;
27225;SDS011;14732;51.074;3.788;2023-04-23T10:47:25;7.00;;;1.65;;
27225;SDS011;14732;51.074;3.788;2023-04-23T10:49:50;9.70;;;1.50;;
27225;SDS011;14732;51.074;3.788;2023-04-23T10:52:17;8.80;;;1.80;;
27225;SDS011;14732;51.074;3.788;2023-04-23T10:54:46;5.25;;;1.50;;
27225;SDS011;14732;51.074;3.788;2023-04-23T10:57:13;7.75;;;1.48;;
27225;SDS011;14732;51.074;3.788;2023-04-23T10:59:49;5.93;;;1.10;;
27225;SDS011;14732;51.074;3.788;2023-04-23T11:02:17;7.30;;;1.20;;
27225;SDS011;14732;51.074;3.788;2023-04-23T11:04:44;9.18;;;1.35;;
27225;SDS011;14732;51.074;3.788;2023-04-23T11:07:11;4.85;;;1.50;;
27225;SDS011;14732;51.074;3.788;2023-04-23T11:09:41;6.72;;;1.38;;
27225;SDS011;14732;51.074;3.788;2023-04-23T11:12:10;5.95;;;1.10;;
27225;SDS011;14732;51.074;3.788;2023-04-23T11:14:48;7.35;;;1.42;;
27225;SDS011;14732;51.074;3.788;2023-04-23T11:18:01;5.80;;;1.23;;
27225;SDS011;14732;51.074;3.788;2023-04-23T11:20:08;3.55;;;0.93;;
27225;SDS011;14732;51.074;3.788;2023-04-23T11:22:50;1.98;;;0.80;;
27225;SDS011;14732;51.074;3.788;2023-04-23T11:25:23;2.45;;;0.93;;
27225;SDS011;14732;51.074;3.788;2023-04-23T11:27:51;1.88;;;0.70;;
27225;SDS011;14732;51.074;3.788;2023-04-23T11:30:25;5.10;;;0.80;;
27225;SDS011;14732;51.074;3.788;2023-04-23T11:32:52;2.33;;;0.90;;
27225;SDS011;14732;51.074;3.788;2023-04-23T11:35:20;3.35;;;0.80;;
27225;SDS011;14732;51.074;3.788;2023-04-23T11:37:48;4.82;;;0.80;;
27225;SDS011;14732;51.074;3.788;2023-04-23T11:40:17;5.78;;;1.02;;
27225;SDS011;14732;51.074;3.788;2023-04-23T11:42:48;1.15;;;0.50;;
27225;SDS011;14732;51.074;3.788;2023-04-23T11:47:42;3.17;;;0.70;;
27225;SDS011;14732;51.074;3.788;2023-04-23T11:50:09;4.50;;;0.85;;
27225;SDS011;14732;51.074;3.788;2023-04-23T11:52:34;2.33;;;0.70;;
27225;SDS011;14732;51.074;3.788;2023-04-23T11:55:06;2.63;;;0.70;;
27225;SDS011;14732;51.074;3.788;2023-04-23T11:57:36;2.63;;;0.80;;
27225;SDS011;14732;51.074;3.788;2023-04-23T12:00:15;1.67;;;0.70;;
27225;SDS011;14732;51.074;3.788;2023-04-23T12:02:49;3.25;;;0.70;;
27225;SDS011;14732;51.074;3.788;2023-04-23T12:05:22;5.55;;;0.90;;
27225;SDS011;14732;51.074;3.788;2023-04-23T12:08:05;3.35;;;0.88;;
27225;SDS011;14732;51.074;3.788;2023-04-23T12:10:50;3.00;;;0.80;;
27225;SDS011;14732;51.074;3.788;2023-04-23T12:13:17;5.10;;;1.00;;
27225;SDS011;14732;51.074;3.788;2023-04-23T12:20:41;3.30;;;0.77;;
27225;SDS011;14732;51.074;3.788;2023-04-23T12:23:06;3.47;;;1.23;;
27225;SDS011;14732;51.074;3.788;2023-04-23T12:25:33;2.30;;;0.80;;
27225;SDS011;14732;51.074;3.788;2023-04-23T12:27:59;3.33;;;0.98;;
27225;SDS011;14732;51.074;3.788;2023-04-23T12:30:28;8.13;;;1.08;;
27225;SDS011;14732;51.074;3.788;2023-04-23T12:33:01;5.00;;;0.98;;
27225;SDS011;14732;51.074;3.788;2023-04-23T12:35:41;7.93;;;0.98;;
27225;SDS011;14732;51.074;3.788;2023-04-23T12:38:19;3.63;;;1.15;;
27225;SDS011;14732;51.074;3.788;2023-04-23T12:40:47;2.15;;;0.82;;
27225;SDS011;14732;51.074;3.788;2023-04-23T12:43:13;2.60;;;0.90;;
27225;SDS011;14732;51.074;3.788;2023-04-23T12:45:39;5.88;;;1.13;;
27225;SDS011;14732;51.074;3.788;2023-04-23T12:48:05;6.30;;;1.40;;
27225;SDS011;14732;51.074;3.788;2023-04-23T12:50:30;2.70;;;0.80;;
27225;SDS011;14732;51.074;3.788;2023-04-23T12:52:56;3.05;;;1.00;;
27225;SDS011;14732;51.074;3.788;2023-04-23T12:55:22;3.55;;;1.10;;
27225;SDS011;14732;51.074;3.788;2023-04-23T12:57:47;6.03;;;1.10;;
27225;SDS011;14732;51.074;3.788;2023-04-23T13:00:13;2.25;;;0.95;;
27225;SDS011;14732;51.074;3.788;2023-04-23T13:02:39;3.85;;;0.90;;
27225;SDS011;14732;51.074;3.788;2023-04-23T13:05:05;1.60;;;0.93;;
27225;SDS011;14732;51.074;3.788;2023-04-23T13:07:31;2.08;;;0.77;;
27225;SDS011;14732;51.074;3.788;2023-04-23T13:09:56;3.03;;;0.90;;
27225;SDS011;14732;51.074;3.788;2023-04-23T13:12:23;3.47;;;0.90;;
27225;SDS011;14732;51.074;3.788;2023-04-23T13:14:49;3.72;;;0.88;;
27225;SDS011;14732;51.074;3.788;2023-04-23T13:17:15;5.15;;;0.90;;
27225;SDS011;14732;51.074;3.788;2023-04-23T13:19:40;2.33;;;0.70;;
27225;SDS011;14732;51.074;3.788;2023-04-23T13:22:06;4.28;;;1.08;;
27225;SDS011;14732;51.074;3.788;2023-04-23T13:24:32;1.77;;;0.70;;
27225;SDS011;14732;51.074;3.788;2023-04-23T13:26:58;2.63;;;0.90;;
27225;SDS011;14732;51.074;3.788;2023-04-23T13:29:24;4.38;;;0.70;;
27225;SDS011;14732;51.074;3.788;2023-04-23T13:31:52;2.05;;;0.80;;
27225;SDS011;14732;51.074;3.788;2023-04-23T13:34:18;1.85;;;0.85;;
27225;SDS011;14732;51.074;3.788;2023-04-23T13:36:44;3.00;;;0.68;;
27225;SDS011;14732;51.074;3.788;2023-04-23T13:39:10;3.60;;;0.90;;
27225;SDS011;14732;51.074;3.788;2023-04-23T13:41:38;1.73;;;0.80;;
27225;SDS011;14732;51.074;3.788;2023-04-23T13:44:06;2.47;;;0.77;;
27225;SDS011;14732;51.074;3.788;2023-04-23T13:46:32;1.08;;;0.68;;
27225;SDS011;14732;51.074;3.788;2023-04-23T13:48:57;3.67;;;0.90;;
27225;SDS011;14732;51.074;3.788;2023-04-23T13:51:25;1.98;;;0.70;;
27225;SDS011;14732;51.074;3.788;2023-04-23T13:53:50;1.83;;;0.90;;
27225;SDS011;14732;51.074;3.788;2023-04-23T13:56:16;1.88;;;0.80;;
27225;SDS011;14732;51.074;3.788;2023-04-23T13:58:42;2.97;;;1.00;;
27225;SDS011;14732;51.074;3.788;2023-04-23T14:01:10;1.15;;;0.70;;
27225;SDS011;14732;51.074;3.788;2023-04-23T14:03:37;3.17;;;1.00;;
27225;SDS011;14732;51.074;3.788;2023-04-23T14:06:03;3.80;;;1.00;;
27225;SDS011;14732;51.074;3.788;2023-04-23T14:08:29;2.35;;;0.88;;
27225;SDS011;14732;51.074;3.788;2023-04-23T14:10:55;1.88;;;0.85;;
27225;SDS011;14732;51.074;3.788;2023-04-23T14:13:21;2.30;;;1.17;;
27225;SDS011;14732;51.074;3.788;2023-04-23T14:15:47;2.65;;;0.77;;
27225;SDS011;14732;51.074;3.788;2023-04-23T14:18:13;2.05;;;0.98;;
27225;SDS011;14732;51.074;3.788;2023-04-23T14:20:38;1.35;;;1.00;;
27225;SDS011;14732;51.074;3.788;2023-04-23T14:26:07;3.33;;;1.00;;
27225;SDS011;14732;51.074;3.788;2023-04-23T14:28:38;1.13;;;1.00;;
27225;SDS011;14732;51.074;3.788;2023-04-23T14:31:05;3.33;;;1.00;;
27225;SDS011;14732;51.074;3.788;2023-04-23T14:33:32;1.65;;;0.90;;
27225;SDS011;14732;51.074;3.788;2023-04-23T14:35:58;3.17;;;0.95;;
27225;SDS011;14732;51.074;3.788;2023-04-23T14:38:23;3.17;;;0.90;;
27225;SDS011;14732;51.074;3.788;2023-04-23T14:40:50;1.80;;;0.90;;
27225;SDS011;14732;51.074;3.788;2023-04-23T14:43:16;2.17;;;1.17;;
27225;SDS011;14732;51.074;3.788;2023-04-23T14:45:42;2.30;;;1.00;;
27225;SDS011;14732;51.074;3.788;2023-04-23T14:48:08;2.33;;;1.10;;